Time;durP1;ratioP1;P1;durP2;ratioP2;P2;SDS_P1;SDS_P2;PMS_P1;PMS_P2;Temp;Humidity;BMP_temperature;BMP_pressure;BME280_temperature;BME280_humidity;BME280_pressure;Samples;Min_cycle;Max_cycle;Signal;HPM_P1;HPM_P2
2022/03/08 00:01:13;;;;;;;6.53;3.67;;;;;;;8.80;25.93;102024.22;4936321;29;20475;-82
2022/03/08 00:03:40;;;;;;;7.57;3.63;;;;;;;8.78;25.95;102025.16;4934593;29;20054;-82
2022/03/08 00:06:07;;;;;;;6.72;3.83;;;;;;;8.75;26.12;102008.13;4920844;29;20055;-82
2022/03/08 00:08:40;;;;;;;6.65;3.80;;;;;;;8.73;26.25;102018.13;4923684;29;20499;-82
2022/03/08 00:11:07;;;;;;;8.45;3.83;;;;;;;8.71;26.03;102010.09;4934048;29;20077;-82
2022/03/08 00:13:34;;;;;;;7.95;3.72;;;;;;;8.70;26.17;102005.63;4923294;29;20146;-82
2022/03/08 00:16:01;;;;;;;7.22;4.05;;;;;;;8.69;26.09;102005.69;4939002;29;20066;-82
2022/03/08 00:18:29;;;;;;;7.25;4.05;;;;;;;8.67;26.13;102005.75;4924052;29;20047;-82
2022/03/08 00:20:56;;;;;;;5.47;3.63;;;;;;;8.68;26.32;102010.22;4919174;29;20115;-82
2022/03/08 00:23:22;;;;;;;5.43;3.35;;;;;;;8.67;26.15;101997.63;4922324;29;20047;-81
2022/03/08 00:25:51;;;;;;;5.25;3.63;;;;;;;8.68;26.15;101993.09;4916351;29;20139;-82
2022/03/08 00:28:18;;;;;;;6.32;3.78;;;;;;;8.68;26.16;101996.69;4921104;29;20083;-82
2022/03/08 00:30:50;;;;;;;5.20;3.63;;;;;;;8.71;26.38;101995.69;4941249;29;20079;-82
2022/03/08 00:33:17;;;;;;;5.13;3.42;;;;;;;8.67;26.14;101994.91;4933166;28;20048;-83
2022/03/08 00:35:44;;;;;;;5.63;3.67;;;;;;;8.68;26.43;101988.56;4926651;29;20055;-84
2022/03/08 00:38:11;;;;;;;6.43;3.80;;;;;;;8.70;26.32;101991.19;4916373;29;20114;-85
2022/03/08 00:40:37;;;;;;;5.20;3.67;;;;;;;8.70;26.23;101989.38;4923086;29;20138;-82
2022/03/08 00:43:04;;;;;;;6.28;3.83;;;;;;;8.69;26.33;101986.72;4927516;29;20083;-82
2022/03/08 00:45:30;;;;;;;6.25;4.15;;;;;;;8.69;26.41;101984.91;4938876;28;20051;-82
2022/03/08 00:47:57;;;;;;;5.53;3.95;;;;;;;8.70;26.23;101993.91;4916502;29;20269;-82
2022/03/08 00:50:28;;;;;;;5.47;3.83;;;;;;;8.72;26.27;101981.19;4920859;29;20063;-82
2022/03/08 00:52:57;;;;;;;5.47;3.85;;;;;;;8.72;26.38;101981.19;4936487;29;20059;-83
2022/03/08 00:55:26;;;;;;;5.10;3.58;;;;;;;8.69;26.46;101979.50;4908796;29;20549;-83
2022/03/08 00:57:53;;;;;;;4.75;3.78;;;;;;;8.67;26.36;101973.25;4925651;29;20071;-83
2022/03/08 01:00:23;;;;;;;5.35;3.42;;;;;;;8.66;26.20;101978.72;4920744;29;20555;-82
2022/03/08 01:02:50;;;;;;;5.47;4.00;;;;;;;8.62;26.05;101983.41;4933185;29;20146;-82
2022/03/08 01:05:17;;;;;;;5.30;3.80;;;;;;;8.61;26.28;101980.75;4936100;29;20052;-83
2022/03/08 01:07:45;;;;;;;5.32;3.90;;;;;;;8.59;26.39;101975.38;4932777;29;20596;-83
2022/03/08 01:10:15;;;;;;;5.63;3.85;;;;;;;8.56;26.19;101971.94;4933816;29;20063;-83
2022/03/08 01:12:43;;;;;;;5.63;3.92;;;;;;;8.53;26.25;101970.25;4929618;29;20090;-83
2022/03/08 01:15:10;;;;;;;6.72;4.15;;;;;;;8.51;26.38;101968.53;4930452;29;20138;-83
2022/03/08 01:17:37;;;;;;;5.75;3.88;;;;;;;8.49;26.46;101974.00;4925193;29;20056;-83
2022/03/08 01:20:07;;;;;;;4.93;3.65;;;;;;;8.50;26.35;101977.59;4925051;29;20106;-84
2022/03/08 01:22:33;;;;;;;6.18;4.20;;;;;;;8.46;26.63;101975.97;4931094;29;20043;-83
2022/03/08 01:25:01;;;;;;;6.10;3.72;;;;;;;8.45;26.36;101969.66;4918481;29;20060;-83
2022/03/08 01:27:28;;;;;;;5.25;3.70;;;;;;;8.42;26.43;101969.78;4936461;29;20048;-83
2022/03/08 01:29:54;;;;;;;5.30;3.95;;;;;;;8.41;26.41;101968.00;4940729;29;20069;-82
2022/03/08 01:32:21;;;;;;;6.25;4.15;;;;;;;8.39;26.63;101965.38;4932539;29;20110;-82
2022/03/08 01:34:48;;;;;;;4.97;3.45;;;;;;;8.39;26.65;101959.09;4941349;29;20050;-81
2022/03/08 01:37:15;;;;;;;6.55;4.10;;;;;;;8.37;26.37;101959.16;4934785;29;20174;-82
2022/03/08 01:39:42;;;;;;;5.55;3.95;;;;;;;8.35;26.83;101955.63;4920248;29;20122;-82
2022/03/08 01:42:11;;;;;;;5.57;3.83;;;;;;;8.35;26.77;101958.31;4931801;29;21053;-81
2022/03/08 01:44:43;;;;;;;4.72;3.72;;;;;;;8.29;27.21;101955.84;4934944;29;20052;-82
2022/03/08 01:47:18;;;;;;;5.18;4.05;;;;;;;8.29;27.04;101961.25;4936546;29;20059;-82
2022/03/08 01:49:45;;;;;;;6.15;4.30;;;;;;;8.24;26.88;101965.06;4934302;29;20061;-82
2022/03/08 01:52:14;;;;;;;5.95;3.90;;;;;;;8.21;26.66;101947.16;4917646;29;20154;-81
2022/03/08 01:54:43;;;;;;;6.40;4.05;;;;;;;8.20;26.97;101947.19;4933466;28;20491;-82
2022/03/08 01:57:11;;;;;;;5.45;4.10;;;;;;;8.16;26.71;101943.72;4929937;29;20275;-82
2022/03/08 01:59:37;;;;;;;6.05;3.97;;;;;;;8.15;27.22;101938.41;4921061;29;20505;-81
2022/03/08 02:02:05;;;;;;;5.93;4.03;;;;;;;8.13;26.99;101937.56;4920158;29;20139;-82
2022/03/08 02:04:32;;;;;;;6.40;4.07;;;;;;;8.09;27.08;101931.38;4940676;29;20052;-82
2022/03/08 02:07:00;;;;;;;5.82;4.20;;;;;;;8.08;27.06;101935.03;4932091;29;20131;-82
2022/03/08 02:09:27;;;;;;;5.35;4.00;;;;;;;8.06;27.17;101925.22;4941801;29;20051;-81
2022/03/08 02:11:53;;;;;;;5.50;3.92;;;;;;;8.05;27.23;101923.47;4915437;29;20130;-82
2022/03/08 02:14:20;;;;;;;5.10;3.97;;;;;;;8.05;27.01;101923.47;4916919;29;20071;-82
2022/03/08 02:16:47;;;;;;;5.78;3.80;;;;;;;8.03;27.12;101912.69;4938060;29;20075;-82
2022/03/08 02:19:15;;;;;;;5.47;3.80;;;;;;;8.04;27.13;101911.75;4931103;28;20144;-82
2022/03/08 02:21:43;;;;;;;5.38;4.00;;;;;;;8.06;27.44;101909.88;4931844;29;20059;-82
2022/03/08 02:24:09;;;;;;;4.50;3.40;;;;;;;8.07;27.31;101908.06;4941243;28;20143;-82
2022/03/08 02:26:37;;;;;;;5.68;4.10;;;;;;;8.09;27.43;101906.16;4919168;29;20107;-81
2022/03/08 02:29:06;;;;;;;5.65;3.63;;;;;;;8.11;27.59;101902.47;4932637;28;20060;-82
2022/03/08 02:31:32;;;;;;;4.93;3.47;;;;;;;8.14;27.69;101904.16;4915541;29;20594;-81
2022/03/08 02:33:59;;;;;;;5.15;4.00;;;;;;;8.16;27.50;101903.16;4931425;28;20404;-81
2022/03/08 02:36:27;;;;;;;6.40;3.85;;;;;;;8.18;27.30;101898.56;4930173;29;20052;-82
2022/03/08 02:38:54;;;;;;;5.50;3.90;;;;;;;8.19;27.09;101897.63;4926003;29;20620;-82
2022/03/08 02:41:20;;;;;;;4.45;3.38;;;;;;;8.19;27.41;101886.81;4933375;29;20503;-81
2022/03/08 02:43:47;;;;;;;5.72;3.78;;;;;;;8.21;27.32;101884.03;4931472;29;20554;-81
2022/03/08 02:46:14;;;;;;;6.10;3.70;;;;;;;8.23;27.28;101892.97;4938581;29;20051;-81
2022/03/08 02:48:41;;;;;;;6.47;3.85;;;;;;;8.24;27.29;101890.19;4933684;28;20059;-81
2022/03/08 02:51:07;;;;;;;5.50;4.05;;;;;;;8.24;27.18;101892.91;4933116;29;20048;-81
2022/03/08 02:53:34;;;;;;;5.15;3.75;;;;;;;8.26;27.65;101892.84;4925298;29;20114;-82
2022/03/08 02:56:02;;;;;;;5.68;3.78;;;;;;;8.26;27.42;101895.53;4939210;29;20136;-81
2022/03/08 02:58:29;;;;;;;6.70;4.47;;;;;;;8.25;27.22;101893.78;4932160;29;20051;-81
2022/03/08 03:00:56;;;;;;;5.50;4.00;;;;;;;8.23;27.28;101896.56;4937469;29;20099;-82
2022/03/08 03:03:23;;;;;;;6.43;4.22;;;;;;;8.20;27.25;101893.09;4930673;28;20094;-81
2022/03/08 03:05:50;;;;;;;5.55;4.00;;;;;;;8.17;27.34;101906.72;4931043;29;20051;-82
2022/03/08 03:08:17;;;;;;;6.78;4.63;;;;;;;8.14;27.34;101896.06;4930433;29;20468;-81
2022/03/08 03:10:43;;;;;;;5.88;4.05;;;;;;;8.09;27.74;101901.63;4919743;29;20466;-82
2022/03/08 03:13:10;;;;;;;6.57;4.15;;;;;;;8.05;27.57;101894.59;4936592;29;20095;-82
2022/03/08 03:15:37;;;;;;;5.93;4.00;;;;;;;8.01;27.66;101896.53;4931117;29;20055;-82
2022/03/08 03:18:09;;;;;;;6.07;4.32;;;;;;;8.00;27.50;101889.34;4931310;29;20056;-82
2022/03/08 03:20:35;;;;;;;6.30;3.95;;;;;;;7.94;27.86;101892.31;4935819;29;20107;-82
2022/03/08 03:23:02;;;;;;;5.20;3.92;;;;;;;7.92;27.62;101886.06;4935875;29;20051;-82
2022/03/08 03:25:29;;;;;;;6.85;4.40;;;;;;;7.91;27.65;101880.72;4925328;29;20072;-82
2022/03/08 03:27:55;;;;;;;6.47;4.03;;;;;;;7.89;27.69;101878.09;4939637;29;20107;-82
2022/03/08 03:30:22;;;;;;;6.05;4.20;;;;;;;7.89;27.89;101883.50;4916948;29;20142;-81
2022/03/08 03:32:48;;;;;;;5.50;4.22;;;;;;;7.90;27.51;101877.16;4923747;29;20062;-82
2022/03/08 03:35:16;;;;;;;5.57;4.18;;;;;;;7.91;27.73;101878.91;4914092;29;20051;-82
2022/03/08 03:37:43;;;;;;;6.35;4.18;;;;;;;7.89;27.80;101875.41;4944407;29;20085;-82
2022/03/08 03:40:11;;;;;;;6.50;4.20;;;;;;;7.89;28.01;101875.41;4919376;29;20068;-82
2022/03/08 03:42:38;;;;;;;5.75;4.07;;;;;;;7.86;27.79;101874.63;4933849;29;20052;-82
2022/03/08 03:45:06;;;;;;;5.72;4.03;;;;;;;7.85;27.76;101873.75;4920905;29;20273;-82
2022/03/08 03:47:33;;;;;;;5.30;3.90;;;;;;;7.83;27.85;101877.44;4919566;29;20084;-82
2022/03/08 03:49:59;;;;;;;6.28;4.15;;;;;;;7.82;27.95;101879.28;4924572;29;20099;-82
2022/03/08 03:52:26;;;;;;;6.32;4.25;;;;;;;7.81;27.98;101877.53;4919790;29;20457;-82
2022/03/08 03:54:53;;;;;;;6.70;4.32;;;;;;;7.79;27.85;101874.00;4916733;29;20535;-81
2022/03/08 03:57:19;;;;;;;6.30;4.13;;;;;;;7.79;28.05;101867.69;4925129;29;20090;-82
2022/03/08 03:59:46;;;;;;;5.32;3.85;;;;;;;7.78;27.59;101858.72;4922863;29;20054;-82
2022/03/08 04:02:12;;;;;;;5.90;4.13;;;;;;;7.78;27.75;101856.00;4934480;29;20134;-82
2022/03/08 04:04:39;;;;;;;7.70;4.05;;;;;;;7.78;27.99;101855.13;4926252;29;20083;-82
2022/03/08 04:07:06;;;;;;;6.60;4.43;;;;;;;7.74;28.17;101846.25;4942625;29;20472;-82
2022/03/08 04:09:32;;;;;;;6.03;4.28;;;;;;;7.73;28.19;101852.63;4940821;28;20043;-82
2022/03/08 04:11:59;;;;;;;5.25;3.95;;;;;;;7.72;28.08;101852.66;4934026;29;20060;-82
2022/03/08 04:14:25;;;;;;;6.80;4.22;;;;;;;7.71;28.04;101848.19;4929925;29;20127;-82
2022/03/08 04:16:53;;;;;;;7.03;4.10;;;;;;;7.71;28.28;101848.19;4920395;29;20044;-82
2022/03/08 04:19:21;;;;;;;6.47;4.22;;;;;;;7.69;27.98;101850.97;4932758;29;20074;-81
2022/03/08 04:21:48;;;;;;;6.82;4.15;;;;;;;7.68;28.24;101846.47;4922962;29;20522;-82
2022/03/08 04:24:15;;;;;;;7.20;4.35;;;;;;;7.66;28.05;101837.53;4934455;29;20071;-81
2022/03/08 04:26:42;;;;;;;6.40;4.25;;;;;;;7.64;28.00;101842.16;4923957;29;20087;-81
2022/03/08 04:29:08;;;;;;;6.18;4.20;;;;;;;7.63;28.14;101837.69;4940272;29;20346;-81
2022/03/08 04:31:35;;;;;;;6.93;4.15;;;;;;;7.62;28.21;101839.50;4916295;29;20054;-81
2022/03/08 04:34:02;;;;;;;6.68;4.35;;;;;;;7.61;27.95;101842.25;4919561;29;20446;-81
2022/03/08 04:36:28;;;;;;;7.38;4.47;;;;;;;7.58;28.29;101840.56;4917072;29;20082;-81
2022/03/08 04:38:55;;;;;;;6.13;4.30;;;;;;;7.58;28.33;101845.97;4928196;29;20079;-81
2022/03/08 04:41:21;;;;;;;6.53;4.45;;;;;;;7.58;27.99;101845.06;4917053;29;20091;-81
2022/03/08 04:43:48;;;;;;;6.15;4.22;;;;;;;7.56;28.15;101850.56;4934445;29;20140;-81
2022/03/08 04:46:18;;;;;;;5.40;4.03;;;;;;;7.56;28.38;101846.97;4919338;29;20139;-81
2022/03/08 04:48:45;;;;;;;6.32;4.30;;;;;;;7.52;28.41;101842.63;4933753;29;20052;-82
2022/03/08 04:51:11;;;;;;;8.23;4.80;;;;;;;7.50;28.38;101850.78;4944812;29;20083;-81
2022/03/08 04:53:39;;;;;;;6.70;4.55;;;;;;;7.48;28.24;101841.88;4919653;29;20142;-81
2022/03/08 04:56:05;;;;;;;6.15;4.53;;;;;;;7.47;28.43;101847.31;4936006;29;20159;-82
2022/03/08 04:58:32;;;;;;;6.32;4.53;;;;;;;7.48;28.30;101854.50;4919645;29;20778;-81
2022/03/08 05:00:58;;;;;;;6.72;4.60;;;;;;;7.46;28.33;101846.44;4936025;29;20572;-81
2022/03/08 05:03:25;;;;;;;7.78;4.40;;;;;;;7.46;28.13;101849.16;4934439;29;20099;-81
2022/03/08 05:05:52;;;;;;;6.07;4.15;;;;;;;7.47;28.45;101855.44;4927913;29;20051;-81
2022/03/08 05:08:18;;;;;;;6.45;4.38;;;;;;;7.45;28.36;101847.38;4918711;29;20112;-81
2022/03/08 05:10:45;;;;;;;5.80;4.10;;;;;;;7.46;28.21;101848.25;4934473;29;20051;-84
2022/03/08 05:13:12;;;;;;;6.03;4.20;;;;;;;7.45;27.93;101844.69;4944423;29;20086;-82
2022/03/08 05:15:38;;;;;;;5.57;4.18;;;;;;;7.45;28.14;101841.97;4937092;29;20085;-82
2022/03/08 05:18:05;;;;;;;7.63;4.90;;;;;;;7.46;28.06;101849.16;4947521;29;20099;-81
2022/03/08 05:20:36;;;;;;;7.57;4.43;;;;;;;7.46;28.30;101842.88;4931464;29;20082;-82
2022/03/08 05:23:03;;;;;;;7.40;4.47;;;;;;;7.45;28.30;101850.09;4936191;29;20078;-81
2022/03/08 05:25:31;;;;;;;10.20;5.28;;;;;;;7.46;28.33;101848.25;4914431;29;20055;-82
2022/03/08 05:27:58;;;;;;;7.45;4.80;;;;;;;7.46;28.43;101848.25;4918901;29;20115;-81
2022/03/08 05:30:26;;;;;;;6.05;4.32;;;;;;;7.45;28.55;101841.09;4935167;29;20147;-82
2022/03/08 05:32:52;;;;;;;7.35;5.22;;;;;;;7.46;28.52;101843.75;4936649;29;20052;-81
2022/03/08 05:35:19;;;;;;;6.38;4.60;;;;;;;7.47;28.44;101844.63;4934254;29;20111;-82
2022/03/08 05:37:46;;;;;;;6.55;4.80;;;;;;;7.48;28.56;101841.00;4936300;29;20059;-81
2022/03/08 05:40:13;;;;;;;6.20;4.50;;;;;;;7.48;28.54;101841.00;4934548;29;20146;-82
2022/03/08 05:42:39;;;;;;;5.95;4.50;;;;;;;7.49;28.64;101837.34;4931209;29;20116;-81
2022/03/08 05:45:08;;;;;;;8.45;5.20;;;;;;;7.48;28.30;101841.88;4921683;29;20798;-81
2022/03/08 05:47:36;;;;;;;6.72;4.68;;;;;;;7.45;28.44;101849.19;4919078;29;20127;-82
2022/03/08 05:50:04;;;;;;;6.50;4.53;;;;;;;7.45;28.48;101852.78;4932198;28;20477;-81
2022/03/08 05:52:31;;;;;;;6.85;4.63;;;;;;;7.43;28.65;101856.47;4915168;29;20421;-82
2022/03/08 05:55:01;;;;;;;6.43;4.40;;;;;;;7.44;28.89;101860.94;4929507;29;20165;-80
2022/03/08 05:57:28;;;;;;;7.80;5.00;;;;;;;7.40;28.68;101856.63;4932585;29;20099;-82
2022/03/08 05:59:55;;;;;;;6.22;4.50;;;;;;;7.40;28.80;101852.09;4920772;29;20078;-82
2022/03/08 06:02:21;;;;;;;7.40;4.57;;;;;;;7.41;28.67;101853.81;4930968;29;20119;-83
2022/03/08 06:04:48;;;;;;;6.50;4.70;;;;;;;7.40;28.88;101857.50;4931576;29;20448;-82
2022/03/08 06:07:15;;;;;;;6.30;4.55;;;;;;;7.41;28.66;101852.97;4915148;29;20079;-82
2022/03/08 06:09:42;;;;;;;6.75;4.63;;;;;;;7.41;28.61;101855.69;4921288;29;20051;-82
2022/03/08 06:12:09;;;;;;;7.93;4.47;;;;;;;7.41;28.91;101853.81;4931931;29;20059;-83
2022/03/08 06:14:36;;;;;;;6.75;4.50;;;;;;;7.42;28.75;101860.13;4916174;29;20614;-84
2022/03/08 06:17:03;;;;;;;6.72;4.45;;;;;;;7.43;28.66;101859.19;4915968;29;20578;-84
2022/03/08 06:19:29;;;;;;;8.63;4.85;;;;;;;7.44;28.79;101861.81;4932811;29;20076;-83
2022/03/08 06:21:56;;;;;;;6.78;4.40;;;;;;;7.45;28.57;101863.59;4918847;29;20071;-84
2022/03/08 06:24:23;;;;;;;7.18;4.88;;;;;;;7.46;28.49;101865.34;4921738;29;20059;-84
2022/03/08 06:26:49;;;;;;;8.25;4.60;;;;;;;7.47;28.72;101858.13;4932821;29;20461;-84
2022/03/08 06:29:16;;;;;;;5.90;4.53;;;;;;;7.49;28.68;101857.16;4937702;29;20059;-84
2022/03/08 06:31:43;;;;;;;6.35;4.63;;;;;;;7.50;28.55;101863.41;4936173;29;20558;-83
2022/03/08 06:34:12;;;;;;;6.47;4.55;;;;;;;7.52;28.78;101866.94;4916284;29;20051;-84
2022/03/08 06:36:39;;;;;;;6.07;4.47;;;;;;;7.52;28.86;101858.84;4935608;29;20052;-84
2022/03/08 06:39:06;;;;;;;7.28;4.68;;;;;;;7.52;28.48;101866.94;4916740;29;20487;-82
2022/03/08 06:41:33;;;;;;;5.95;4.35;;;;;;;7.54;28.76;101874.06;4935858;29;20079;-82
2022/03/08 06:44:00;;;;;;;7.88;4.72;;;;;;;7.53;28.94;101872.28;4931957;29;20110;-84
2022/03/08 06:46:27;;;;;;;5.57;4.32;;;;;;;7.55;28.82;101872.25;4916839;29;20054;-87
2022/03/08 06:48:54;;;;;;;7.30;4.45;;;;;;;7.57;28.86;101876.66;4922894;29;20051;-87
2022/03/08 06:51:21;;;;;;;6.88;4.38;;;;;;;7.60;28.85;101879.22;4920418;29;20468;-87
2022/03/08 06:53:48;;;;;;;6.72;4.55;;;;;;;7.63;29.01;101864.72;4930951;29;20126;-84
2022/03/08 06:56:15;;;;;;;8.82;4.60;;;;;;;7.72;29.50;101871.59;4915941;29;20051;-87
2022/03/08 06:58:43;;;;;;;5.68;4.38;;;;;;;7.83;29.94;101862.09;4920341;29;20083;-89
2022/03/08 07:01:10;;;;;;;7.50;4.82;;;;;;;7.99;30.06;101856.97;4935403;29;20078;-87
2022/03/08 07:03:37;;;;;;;6.65;4.55;;;;;;;8.20;30.23;101857.94;4940154;29;20052;-88
2022/03/08 07:06:05;;;;;;;6.82;4.75;;;;;;;8.43;30.55;101854.28;4926905;29;20062;-87
2022/03/08 07:08:32;;;;;;;6.97;4.90;;;;;;;8.68;30.48;101860.44;4925514;29;20182;-89
2022/03/08 07:10:58;;;;;;;6.63;4.78;;;;;;;8.97;30.90;101867.31;4926676;29;20060;-88
2022/03/08 07:13:26;;;;;;;6.30;4.70;;;;;;;9.26;30.71;101871.41;4920140;29;20468;-90
2022/03/08 07:15:53;;;;;;;6.93;4.57;;;;;;;9.54;30.31;101870.09;4921191;29;20550;-86
2022/03/08 07:18:20;;;;;;;6.22;4.40;;;;;;;9.85;30.25;101871.34;4934622;29;20044;-85
2022/03/08 07:20:46;;;;;;;6.43;4.53;;;;;;;10.15;30.08;101864.44;4938776;29;20098;-85
2022/03/08 07:23:16;;;;;;;7.20;4.45;;;;;;;10.46;29.75;101861.09;4936531;28;20547;-85
2022/03/08 07:25:43;;;;;;;7.03;4.50;;;;;;;10.75;29.62;101862.34;4934575;29;20149;-83
2022/03/08 07:28:10;;;;;;;6.22;4.50;;;;;;;11.03;29.48;101857.25;4914552;29;20464;-85
2022/03/08 07:30:56;;;;;;;5.45;4.03;;;;;;;11.31;29.20;101853.03;4938673;29;20051;-83
2022/03/08 07:33:24;;;;;;;5.38;4.10;;;;;;;11.58;28.96;101858.81;4936419;29;20107;-83
2022/03/08 07:35:51;;;;;;;6.10;4.32;;;;;;;11.83;28.39;101867.41;4925664;29;20059;-83
2022/03/08 07:38:17;;;;;;;5.72;4.00;;;;;;;12.05;28.41;101864.34;4933872;29;20091;-86
2022/03/08 07:40:44;;;;;;;7.20;4.15;;;;;;;12.27;28.07;101858.56;4940785;29;20130;-86
2022/03/08 07:43:10;;;;;;;7.18;4.38;;;;;;;12.51;27.67;101868.03;4916620;29;20064;-85
2022/03/08 07:45:37;;;;;;;8.25;4.47;;;;;;;12.67;27.52;101860.69;4923935;29;20075;-85
2022/03/08 07:48:05;;;;;;;5.75;4.07;;;;;;;12.89;26.80;101873.91;4920791;29;20086;-84
2022/03/08 07:50:35;;;;;;;5.57;4.28;;;;;;;13.01;26.52;101872.28;4922856;29;20523;-84
2022/03/08 07:53:02;;;;;;;6.40;4.50;;;;;;;13.10;26.29;101863.53;4921176;29;20767;-83
2022/03/08 07:55:32;;;;;;;7.03;4.65;;;;;;;13.16;26.03;101872.25;4932415;29;20085;-86
2022/03/08 07:58:00;;;;;;;6.63;4.63;;;;;;;13.22;25.77;101858.25;4916779;29;20103;-85
2022/03/08 08:00:29;;;;;;;8.23;4.47;;;;;;;13.25;25.77;101873.56;4917391;29;20130;-85
2022/03/08 08:02:56;;;;;;;6.22;4.20;;;;;;;13.28;25.60;101866.03;4919567;29;20122;-85
2022/03/08 08:05:23;;;;;;;5.82;4.10;;;;;;;13.31;25.33;101871.31;4916718;29;20072;-87
2022/03/08 08:07:50;;;;;;;6.53;4.65;;;;;;;13.32;24.99;101869.47;4925655;29;20103;-84
2022/03/08 08:10:16;;;;;;;6.38;4.80;;;;;;;13.31;24.50;101873.16;4937754;29;20048;-87
2022/03/08 08:12:43;;;;;;;6.00;4.15;;;;;;;13.28;24.63;101866.03;4948454;29;20055;-87
2022/03/08 08:15:10;;;;;;;6.38;4.50;;;;;;;13.23;24.47;101873.63;4932250;29;20052;-87
2022/03/08 08:17:37;;;;;;;5.88;4.55;;;;;;;13.17;24.06;101873.16;4936297;29;20052;-87
2022/03/08 08:20:04;;;;;;;7.10;4.75;;;;;;;13.05;24.21;101880.19;4926222;29;20551;-87
2022/03/08 08:22:31;;;;;;;7.05;4.50;;;;;;;12.94;24.30;101871.75;4936530;29;20103;-87
2022/03/08 08:24:58;;;;;;;7.07;4.50;;;;;;;12.85;24.07;101869.59;4919304;29;20490;-85
2022/03/08 08:27:24;;;;;;;5.70;4.13;;;;;;;12.77;24.26;101861.88;4917647;29;20060;-83
2022/03/08 08:29:51;;;;;;;5.95;4.15;;;;;;;12.71;24.39;101864.97;4926403;29;20055;-84
2022/03/08 08:32:18;;;;;;;5.85;4.32;;;;;;;12.67;24.29;101865.28;4919976;29;20106;-81
2022/03/08 08:34:44;;;;;;;5.43;4.25;;;;;;;12.64;24.53;101879.06;4915554;29;20047;-82
2022/03/08 08:37:11;;;;;;;5.55;4.13;;;;;;;12.63;24.57;101872.72;4931639;29;20582;-79
2022/03/08 08:39:39;;;;;;;4.72;4.03;;;;;;;12.60;24.49;101870.19;4915587;29;20103;-80
2022/03/08 08:42:06;;;;;;;5.40;4.18;;;;;;;12.58;24.56;101867.56;4928723;29;20055;-81
2022/03/08 08:44:37;;;;;;;6.22;3.90;;;;;;;12.56;24.56;101861.31;4940142;28;20051;-80
2022/03/08 08:47:04;;;;;;;5.72;3.90;;;;;;;12.56;24.60;101866.78;4934550;29;20063;-82
2022/03/08 08:49:31;;;;;;;5.90;3.75;;;;;;;12.57;24.69;101849.47;4946212;28;20043;-82
2022/03/08 08:52:02;;;;;;;5.18;3.55;;;;;;;12.60;24.90;101847.53;4921654;29;20293;-83
2022/03/08 08:54:29;;;;;;;6.18;4.00;;;;;;;12.65;24.55;101853.56;4932612;29;20477;-84
2022/03/08 08:56:56;;;;;;;4.72;3.70;;;;;;;12.70;24.58;101870.50;4928307;29;20047;-81
2022/03/08 08:59:23;;;;;;;7.30;4.10;;;;;;;12.71;24.19;101862.25;4914998;29;20568;-81
2022/03/08 09:01:49;;;;;;;6.00;4.20;;;;;;;12.74;24.27;101856.63;4922316;29;20124;-81
2022/03/08 09:04:16;;;;;;;5.30;4.30;;;;;;;12.75;24.06;101843.88;4916471;29;20063;-81
2022/03/08 09:06:43;;;;;;;5.43;4.13;;;;;;;12.74;24.13;101845.72;4911245;29;20051;-81
2022/03/08 09:09:10;;;;;;;4.63;3.58;;;;;;;12.75;24.40;101847.50;4919122;29;20071;-81
2022/03/08 09:11:37;;;;;;;4.57;3.60;;;;;;;12.76;24.26;101838.34;4937073;29;20051;-81
2022/03/08 09:14:05;;;;;;;5.40;3.88;;;;;;;12.81;24.00;101847.13;4936116;29;20055;-85
2022/03/08 09:16:32;;;;;;;5.50;4.10;;;;;;;12.82;23.92;101840.69;4932608;29;20056;-81
2022/03/08 09:18:58;;;;;;;5.28;3.72;;;;;;;12.82;24.22;101843.41;4930431;29;20106;-81
2022/03/08 09:21:25;;;;;;;5.05;3.45;;;;;;;12.85;24.18;101826.88;4931254;29;20103;-79
2022/03/08 09:23:52;;;;;;;5.47;3.65;;;;;;;12.89;23.77;101849.38;4917622;29;20132;-81
2022/03/08 09:26:18;;;;;;;5.80;3.58;;;;;;;12.90;23.48;101842.94;4929608;29;20063;-78
2022/03/08 09:28:45;;;;;;;4.85;3.65;;;;;;;12.89;23.68;101833.91;4929687;29;20075;-78
2022/03/08 09:31:12;;;;;;;6.65;3.83;;;;;;;12.89;23.55;101833.03;4934336;29;20142;-76
2022/03/08 09:33:40;;;;;;;5.10;3.88;;;;;;;12.93;23.37;101831.84;4929091;29;20066;-77
2022/03/08 09:36:06;;;;;;;5.15;3.65;;;;;;;12.93;23.40;101830.00;4929096;29;20142;-77
2022/03/08 09:38:33;;;;;;;6.28;3.88;;;;;;;12.97;23.23;101830.69;4940841;28;20154;-79
2022/03/08 09:41:01;;;;;;;5.60;3.60;;;;;;;12.99;23.15;101830.63;4930910;29;20043;-79
2022/03/08 09:43:30;;;;;;;5.28;3.90;;;;;;;12.92;23.15;101825.53;4931393;29;20419;-78
2022/03/08 09:45:56;;;;;;;5.28;3.95;;;;;;;12.89;22.83;101814.81;4929746;29;20118;-77
2022/03/08 09:48:23;;;;;;;5.78;3.88;;;;;;;12.86;23.02;101819.56;4921003;29;20130;-78
2022/03/08 09:50:49;;;;;;;5.80;3.45;;;;;;;12.86;23.14;101820.44;4918898;29;20044;-78
2022/03/08 09:53:17;;;;;;;4.78;3.55;;;;;;;12.88;22.95;101790.38;4936553;29;20284;-79
2022/03/08 09:55:44;;;;;;;6.15;3.35;;;;;;;12.86;23.15;101809.53;4930554;29;20122;-80
2022/03/08 09:58:11;;;;;;;6.13;3.70;;;;;;;12.88;22.91;101815.78;4930603;29;20052;-79
2022/03/08 10:00:37;;;;;;;5.30;3.85;;;;;;;12.92;23.28;101809.19;4917542;29;20326;-78
2022/03/08 10:03:10;;;;;;;4.65;3.15;;;;;;;13.00;22.87;101805.13;4936946;29;20055;-79
2022/03/08 10:05:43;;;;;;;5.82;3.78;;;;;;;13.02;23.07;101798.56;4918496;29;20062;-79
2022/03/08 10:08:13;;;;;;;5.70;3.75;;;;;;;13.08;23.28;101794.59;4928911;29;20114;-79
2022/03/08 10:10:48;;;;;;;5.78;3.35;;;;;;;13.16;22.90;101800.50;4931970;29;20411;-77
2022/03/08 10:13:40;;;;;;;5.70;4.22;;;;;;;13.19;22.95;101787.53;4931148;29;20039;-77
2022/03/08 10:16:15;;;;;;;7.88;4.10;;;;;;;13.26;22.59;101794.34;4935295;29;20106;-77
2022/03/08 10:18:50;;;;;;;9.35;3.78;;;;;;;13.34;22.64;101786.56;4933648;29;20056;-78
2022/03/08 10:21:51;;;;;;;6.75;3.50;;;;;;;13.37;22.75;101782.75;4929656;29;20110;-78
2022/03/08 10:24:27;;;;;;;7.00;3.90;;;;;;;13.41;23.04;101787.06;4918683;29;20043;-77
2022/03/08 10:26:56;;;;;;;6.25;3.70;;;;;;;13.47;22.81;101788.50;4932420;29;20380;-78
2022/03/08 10:29:35;;;;;;;5.45;3.83;;;;;;;13.54;22.33;101776.22;4935127;28;20143;-76
2022/03/08 10:32:21;;;;;;;4.82;3.42;;;;;;;13.56;22.37;101783.34;4922041;29;20052;-76
2022/03/08 10:34:51;;;;;;;5.75;3.97;;;;;;;13.60;21.73;101767.63;4935968;29;20495;-76
2022/03/08 10:37:20;;;;;;;6.05;3.92;;;;;;;13.63;22.29;101760.13;4936110;29;20519;-77
2022/03/08 10:40:00;;;;;;;5.05;3.70;;;;;;;13.66;22.19;101759.94;4936120;29;20456;-77
2022/03/08 10:42:32;;;;;;;5.00;3.70;;;;;;;13.69;22.24;101758.84;4935084;29;20043;-77
2022/03/08 10:45:12;;;;;;;5.45;3.45;;;;;;;13.73;22.10;101760.41;4937849;29;20086;-76
2022/03/08 10:47:44;;;;;;;4.40;3.35;;;;;;;13.75;22.24;101753.00;4927990;29;20055;-77
2022/03/08 10:50:15;;;;;;;5.57;3.90;;;;;;;13.75;22.10;101746.69;4922899;29;20048;-76
2022/03/08 10:52:44;;;;;;;5.35;3.63;;;;;;;13.79;22.17;101748.22;4921298;29;20107;-76
2022/03/08 10:55:11;;;;;;;4.78;3.08;;;;;;;13.83;22.41;101752.50;4937910;29;20110;-76
2022/03/08 10:57:40;;;;;;;5.15;3.53;;;;;;;13.88;22.02;101750.34;4935330;29;20492;-77
2022/03/08 11:00:20;;;;;;;6.30;3.53;;;;;;;13.90;21.85;101732.00;4935438;29;20056;-76
2022/03/08 11:03:02;;;;;;;5.95;3.60;;;;;;;13.95;21.42;101727.09;4939020;28;20047;-76
2022/03/08 11:05:35;;;;;;;5.47;3.50;;;;;;;13.98;21.76;101725.06;4940188;29;20106;-76
2022/03/08 11:08:03;;;;;;;5.13;3.10;;;;;;;13.99;21.71;101729.53;4936141;29;20063;-76
2022/03/08 11:10:31;;;;;;;4.78;3.20;;;;;;;14.03;21.57;101713.81;4936983;29;20491;-76
2022/03/08 11:12:59;;;;;;;5.53;3.20;;;;;;;14.08;21.78;101717.97;4939128;29;20463;-77
2022/03/08 11:15:28;;;;;;;5.05;3.25;;;;;;;14.10;21.46;101723.34;4934732;29;20416;-77
2022/03/08 11:17:56;;;;;;;4.65;3.13;;;;;;;14.16;21.17;101731.13;4922325;29;20132;-77
2022/03/08 11:20:24;;;;;;;5.30;3.72;;;;;;;14.19;21.07;101713.63;4936544;28;20121;-77
2022/03/08 11:22:54;;;;;;;4.78;3.30;;;;;;;14.17;21.13;101716.47;4937752;29;20468;-76
2022/03/08 11:25:24;;;;;;;5.07;3.17;;;;;;;14.19;20.92;101719.09;4935942;29;20059;-77
2022/03/08 11:28:11;;;;;;;4.85;3.78;;;;;;;14.17;21.00;101705.53;4938925;29;20094;-77
2022/03/08 11:30:45;;;;;;;6.18;3.40;;;;;;;14.18;20.04;101711.88;4938605;29;20346;-77
2022/03/08 11:33:30;;;;;;;5.15;3.65;;;;;;;14.18;20.66;101711.88;4919594;29;20102;-77